createdAt,value
2022-10-23T00:03:58.714Z,99331.41
2022-10-23T00:09:01.163Z,99305.22
2022-10-23T00:14:06.114Z,99341.91
2022-10-23T00:19:08.435Z,99335.84
2022-10-23T00:29:32.533Z,99331.69
2022-10-23T00:34:34.631Z,99278.41
2022-10-23T00:39:38.822Z,99329.09
2022-10-23T00:45:13.396Z,99309.09
2022-10-23T00:50:16.232Z,99257.47
2022-10-23T00:55:20.040Z,99317.91
2022-10-23T01:00:42.976Z,99281.09
2022-10-23T01:06:00.708Z,99289.94
2022-10-23T01:11:15.766Z,99305.69
2022-10-23T01:16:27.771Z,99295.16
2022-10-23T01:22:21.784Z,99274.25
2022-10-23T01:27:28.707Z,99272.50
2022-10-23T01:32:37.935Z,99238.41
2022-10-23T01:37:47.000Z,99261.13
2022-10-23T01:42:54.458Z,99271.59
2022-10-23T01:48:22.865Z,99251.28
2022-10-23T01:53:44.682Z,99278.38
2022-10-23T01:58:51.476Z,99239.88
2022-10-23T02:03:54.764Z,99239.75
2022-10-23T02:09:15.770Z,99191.50
2022-10-23T02:14:51.876Z,99261.53
2022-10-23T02:20:02.888Z,99235.97
2022-10-23T02:25:36.500Z,99226.25
2022-10-23T02:30:42.440Z,99228.78
2022-10-23T02:35:47.520Z,99224.31
2022-10-23T02:41:40.886Z,99246.41
2022-10-23T02:47:09.822Z,99239.22
2022-10-23T02:52:36.648Z,99200.00
2022-10-23T02:57:45.081Z,99181.63
2022-10-23T03:02:54.846Z,99061.63
2022-10-23T03:07:57.538Z,99204.34
2022-10-23T03:12:59.811Z,99162.44
2022-10-23T03:18:05.381Z,99165.94
2022-10-23T03:23:26.934Z,99156.41
2022-10-23T03:28:29.101Z,99205.13
2022-10-23T03:33:32.094Z,99207.78
2022-10-23T03:38:42.209Z,99128.25
2022-10-23T03:43:45.877Z,99204.16
2022-10-23T03:48:48.011Z,99173.50
2022-10-23T03:53:50.175Z,99136.06
2022-10-23T03:58:52.528Z,99188.47
2022-10-23T04:03:55.119Z,99112.44
2022-10-23T04:08:59.528Z,99144.63
2022-10-23T04:14:01.968Z,99193.44
2022-10-23T04:19:04.202Z,99118.31
2022-10-23T04:24:06.698Z,99142.75
2022-10-23T04:29:08.816Z,99178.19
2022-10-23T04:34:10.982Z,99136.34
2022-10-23T04:39:13.251Z,99154.81
2022-10-23T04:44:15.468Z,99182.81
2022-10-23T04:49:18.115Z,99085.06
2022-10-23T04:54:41.513Z,99079.88
2022-10-23T05:00:08.663Z,99016.88
2022-10-23T05:05:19.109Z,99149.56
2022-10-23T05:10:50.244Z,99155.75
2022-10-23T05:16:26.731Z,99178.41
2022-10-23T05:21:30.508Z,99155.56
2022-10-23T05:26:34.539Z,99092.81
2022-10-23T05:31:41.828Z,99142.78
2022-10-23T05:37:08.586Z,99162.94
2022-10-23T05:42:13.336Z,99163.03
2022-10-23T05:47:16.793Z,99120.34
2022-10-23T05:52:27.911Z,99132.78
2022-10-23T05:57:44.774Z,99112.91
2022-10-23T06:02:51.084Z,99109.53
2022-10-23T06:08:06.308Z,99068.75
2022-10-23T06:13:09.031Z,98873.44
2022-10-23T06:18:12.104Z,98864.06
2022-10-23T06:23:25.816Z,99010.63
2022-10-23T06:28:37.624Z,99067.53
2022-10-23T06:33:40.976Z,99053.88
2022-10-23T06:38:47.380Z,99047.16
2022-10-23T06:43:51.161Z,99102.09
2022-10-23T06:49:02.369Z,98974.91
2022-10-23T06:54:08.958Z,99084.13
2022-10-23T06:59:26.212Z,99038.13
2022-10-23T07:04:30.021Z,99054.88
2022-10-23T07:09:35.938Z,99038.34
2022-10-23T07:14:53.469Z,99029.00
2022-10-23T07:20:01.191Z,99034.25
2022-10-23T07:25:05.786Z,99044.09
2022-10-23T07:30:31.885Z,98975.31
2022-10-23T07:35:38.595Z,99046.09
2022-10-23T07:40:47.556Z,98996.50
2022-10-23T07:45:52.760Z,98990.53
2022-10-23T07:51:21.665Z,98954.03
2022-10-23T07:56:30.755Z,98996.75
2022-10-23T08:01:46.042Z,98999.53
2022-10-23T08:06:49.199Z,98945.56
2022-10-23T08:11:51.968Z,98937.84
2022-10-23T08:16:56.360Z,98999.69
2022-10-23T08:22:18.839Z,98983.28
2022-10-23T08:27:21.798Z,99033.81
2022-10-23T08:32:24.967Z,98961.59
2022-10-23T08:37:31.303Z,98993.88
2022-10-23T08:42:40.287Z,98992.16
2022-10-23T08:47:46.458Z,98928.63
2022-10-23T08:53:44.279Z,99014.06
2022-10-23T08:58:56.206Z,98984.59
2022-10-23T09:03:58.399Z,98961.19
2022-10-23T09:09:16.179Z,98951.81
2022-10-23T09:14:49.284Z,98992.78
2022-10-23T09:20:19.848Z,98993.59
2022-10-23T09:28:49.315Z,98977.97
2022-10-23T09:33:59.925Z,98975.47
2022-10-23T09:39:02.476Z,98905.84
2022-10-23T09:44:07.782Z,98970.28
2022-10-23T09:49:25.158Z,98962.59
2022-10-23T09:54:47.529Z,98920.81
2022-10-23T10:00:14.493Z,98947.03
2022-10-23T10:05:26.488Z,98906.97
2022-10-23T10:10:45.333Z,98909.63
2022-10-23T10:15:55.043Z,98923.50
2022-10-23T10:21:11.224Z,98919.19
2022-10-23T10:26:56.122Z,98928.94
2022-10-23T10:32:34.832Z,98929.75
2022-10-23T10:42:49.355Z,98914.19
2022-10-23T10:48:27.000Z,98897.72
2022-10-23T10:54:31.292Z,98860.38
2022-10-23T10:59:38.637Z,98872.53
2022-10-23T11:05:16.343Z,98863.06
2022-10-23T11:10:20.046Z,98873.47
2022-10-23T11:15:39.646Z,98851.81
2022-10-23T11:20:59.871Z,98864.06
2022-10-23T11:26:18.782Z,98828.44
2022-10-23T11:31:31.021Z,98854.56
2022-10-23T11:36:55.491Z,98849.38
2022-10-23T11:42:33.290Z,98845.97
2022-10-23T11:47:39.919Z,98831.13
2022-10-23T11:53:15.099Z,98803.34
2022-10-23T11:58:32.257Z,98804.19
2022-10-23T12:03:56.506Z,98786.06
2022-10-23T12:09:04.900Z,98795.56
2022-10-23T12:14:26.106Z,98719.16
2022-10-23T12:19:30.952Z,98801.63
2022-10-23T12:25:02.630Z,98827.75
2022-10-23T12:30:29.431Z,98781.78
2022-10-23T12:35:47.919Z,98821.69
2022-10-23T12:40:56.126Z,98819.06
2022-10-23T12:46:42.707Z,98817.38
2022-10-23T12:51:46.924Z,98798.22
2022-10-23T12:56:49.863Z,98814.75
2022-10-23T13:01:53.053Z,98783.56
2022-10-23T13:07:01.185Z,98801.84
2022-10-23T13:12:06.664Z,98746.28
2022-10-23T13:17:13.193Z,98725.47
2022-10-23T13:22:33.850Z,98749.00
2022-10-23T13:32:43.787Z,98726.56
2022-10-23T13:37:46.316Z,98726.56
2022-10-23T13:43:14.281Z,98719.66
2022-10-23T13:48:16.430Z,98767.50
2022-10-23T13:53:37.628Z,98763.84
2022-10-23T13:58:58.389Z,98673.56
2022-10-23T14:04:00.722Z,98640.44
2022-10-23T14:09:04.670Z,98727.38
2022-10-23T14:14:06.939Z,98718.69
2022-10-23T14:19:09.836Z,98696.09
2022-10-23T14:24:12.196Z,98679.66
2022-10-23T14:29:21.364Z,98708.31
2022-10-23T14:34:26.369Z,98678.81
2022-10-23T14:39:28.693Z,98704.84
2022-10-23T14:49:41.673Z,98678.81
2022-10-23T14:54:45.980Z,98701.41
2022-10-23T14:59:49.280Z,98682.28
2022-10-23T15:04:51.509Z,98619.78
2022-10-23T15:09:53.871Z,98661.47
2022-10-23T15:14:56.089Z,98707.53
2022-10-23T15:19:58.550Z,98669.31
2022-10-23T15:25:00.790Z,98665.81
2022-10-23T15:30:03.193Z,98650.22
2022-10-23T15:40:49.486Z,98699.75
2022-10-23T15:45:51.707Z,98655.47
2022-10-23T15:50:55.716Z,98632.94
2022-10-23T15:55:59.113Z,98669.34
2022-10-23T16:01:08.397Z,98710.16
2022-10-23T16:06:16.690Z,98670.19
2022-10-23T16:11:24.845Z,98659.81
2022-10-23T16:16:45.801Z,98653.75
2022-10-23T16:21:48.048Z,98677.16
2022-10-23T16:26:56.329Z,98691.94
2022-10-23T16:32:00.205Z,98629.50
2022-10-23T16:37:02.488Z,98665.13
2022-10-23T16:42:29.410Z,98651.25
2022-10-23T16:47:58.850Z,98607.91
2022-10-23T16:53:01.173Z,98646.09
2022-10-23T16:58:53.477Z,98664.31
2022-10-23T17:04:21.960Z,98633.97
2022-10-23T17:09:31.527Z,98457.09
2022-10-23T17:14:33.823Z,98578.53
2022-10-23T17:19:45.088Z,98582.84
2022-10-23T17:24:51.456Z,98575.09
2022-10-23T17:29:56.257Z,98573.34
2022-10-23T17:34:58.674Z,98566.38
2022-10-23T17:40:02.751Z,98590.72
2022-10-23T17:45:06.134Z,98612.41
2022-10-23T17:50:09.744Z,98555.19
2022-10-23T17:55:11.906Z,98586.41
2022-10-23T18:00:14.400Z,98555.22
2022-10-23T18:11:24.768Z,98549.16
2022-10-23T18:16:27.314Z,98574.28
2022-10-23T18:21:31.952Z,98587.34
2022-10-23T18:26:35.373Z,98589.94
2022-10-23T18:31:38.004Z,98550.94
2022-10-23T18:36:41.127Z,98538.81
2022-10-23T18:41:48.167Z,98564.78
2022-10-23T18:46:50.860Z,98533.63
2022-10-23T18:51:55.801Z,98524.94
2022-10-23T18:56:59.219Z,98485.09
2022-10-23T19:02:02.751Z,98576.94
2022-10-23T19:07:05.134Z,98510.25
2022-10-23T19:12:09.697Z,98527.56
2022-10-23T19:17:23.647Z,98373.38
2022-10-23T19:22:32.341Z,98363.81
2022-10-23T19:27:34.602Z,98457.41
2022-10-23T19:32:55.673Z,98531.88
2022-10-23T19:38:00.646Z,98531.91
2022-10-23T19:43:21.373Z,98518.94
2022-10-23T19:48:23.518Z,98492.03
2022-10-23T19:53:44.718Z,98491.16
2022-10-23T19:58:47.650Z,98503.31
2022-10-23T20:03:50.679Z,98551.81
2022-10-23T20:08:54.428Z,98505.06
2022-10-23T20:13:57.715Z,98527.56
2022-10-23T20:19:07.542Z,98526.72
2022-10-23T20:24:12.530Z,98539.72
2022-10-23T20:29:15.407Z,98522.41
2022-10-23T20:34:19.856Z,98478.22
2022-10-23T20:39:27.118Z,98488.59
2022-10-23T20:44:30.945Z,98485.13
2022-10-23T20:49:33.030Z,98439.22
2022-10-23T20:54:36.579Z,98447.88
2022-10-23T20:59:57.616Z,98479.09
2022-10-23T21:04:59.828Z,98490.34
2022-10-23T21:10:05.420Z,98489.50
2022-10-23T21:15:08.511Z,98488.59
2022-10-23T21:20:10.956Z,98514.63
2022-10-23T21:25:15.828Z,98494.69
2022-10-23T21:30:17.972Z,98434.03
2022-10-23T21:35:20.075Z,98483.41
2022-10-23T21:40:22.281Z,98413.25
2022-10-23T21:45:44.499Z,98511.13
2022-10-23T21:50:46.711Z,98479.06
2022-10-23T21:55:48.842Z,98478.16
2022-10-23T22:00:50.992Z,98480.78
2022-10-23T22:05:53.211Z,98466.06
2022-10-23T22:10:55.355Z,98475.53
2022-10-23T22:16:02.565Z,98460.84
2022-10-23T22:21:11.191Z,98513.69
2022-10-23T22:26:28.567Z,98519.78
2022-10-23T22:31:32.507Z,98523.22
2022-10-23T22:36:38.268Z,98482.53
2022-10-23T22:41:58.680Z,98447.00
2022-10-23T22:47:00.823Z,98374.25
2022-10-23T22:52:02.992Z,98422.78
2022-10-23T22:57:05.146Z,98437.50
2022-10-23T23:02:26.068Z,98479.94
2022-10-23T23:07:46.992Z,98483.38
2022-10-23T23:12:52.839Z,98515.44
2022-10-23T23:18:01.063Z,98499.88
2022-10-23T23:23:03.579Z,98493.75
2022-10-23T23:28:05.746Z,98472.09
2022-10-23T23:33:08.658Z,98462.56
2022-10-23T23:38:11.631Z,98520.63
2022-10-23T23:43:13.819Z,98407.13
2022-10-23T23:48:16.083Z,98517.16
2022-10-23T23:53:18.370Z,98515.44
2022-10-23T23:58:20.634Z,98492.84
